CYKP

Ogoki Post

Ogoki Post, Ontario, Canada
METAR CYKP 201200Z AUTO 34007KT 9SM CLR M22/M25 A2973 RMK ICG SLP095
Observed Flight Rules
Jan-20 @ 12:00 UTC (an hour ago) Visual Flight Rules
Wind Visibility Clouds
340° at 7 knots 9 miles
  • Clear skies
Temperatures Readings
Current -22°C / -8°F
Dewpoint -25°C / -13°F
Humidity 77%
Altimeter 29.73" Hg
Pressure 1009.5 hPa
Elevation 179
METAR CYKP 201200Z AUTO 34007KT 9SM CLR M22/M25 A2973 RMK ICG SLP095
Observed Flight Rules
Jan-20 @ 12:00 UTC
(an hour ago)
VFR
Wind Visibility
340° at 7 knots 9 miles
Clouds
  • Clear skies
Temperature Dewpoint
-22°C / -8°F -25°C / -13°F
Humidity Altimeter Pressure
77% 29.73" Hg 1009.5 hPa